sensor_id;sensor_type;location;lat;lon;timestamp;P1;durP1;ratioP1;P2;durP2;ratioP2
39098;SDS011;24844;52.380;7.018;2023-03-23T00:01:27;12.20;;;7.22;;
39098;SDS011;24844;52.380;7.018;2023-03-23T00:03:56;12.98;;;7.18;;
39098;SDS011;24844;52.380;7.018;2023-03-23T00:06:23;10.25;;;6.97;;
39098;SDS011;24844;52.380;7.018;2023-03-23T00:08:51;13.85;;;6.20;;
39098;SDS011;24844;52.380;7.018;2023-03-23T00:11:22;11.57;;;6.50;;
39098;SDS011;24844;52.380;7.018;2023-03-23T00:13:51;13.20;;;6.57;;
39098;SDS011;24844;52.380;7.018;2023-03-23T00:16:21;11.57;;;6.90;;
39098;SDS011;24844;52.380;7.018;2023-03-23T00:19:12;16.83;;;6.72;;
39098;SDS011;24844;52.380;7.018;2023-03-23T00:21:39;9.80;;;6.50;;
39098;SDS011;24844;52.380;7.018;2023-03-23T00:24:16;12.38;;;6.22;;
39098;SDS011;24844;52.380;7.018;2023-03-23T00:26:43;11.13;;;6.22;;
39098;SDS011;24844;52.380;7.018;2023-03-23T00:29:18;11.15;;;6.10;;
39098;SDS011;24844;52.380;7.018;2023-03-23T00:31:46;8.68;;;5.70;;
39098;SDS011;24844;52.380;7.018;2023-03-23T00:34:13;10.07;;;5.25;;
39098;SDS011;24844;52.380;7.018;2023-03-23T00:36:44;9.63;;;5.70;;
39098;SDS011;24844;52.380;7.018;2023-03-23T00:41:51;10.15;;;5.72;;
39098;SDS011;24844;52.380;7.018;2023-03-23T00:44:18;7.93;;;5.45;;
39098;SDS011;24844;52.380;7.018;2023-03-23T00:46:47;13.90;;;5.95;;
39098;SDS011;24844;52.380;7.018;2023-03-23T00:49:15;10.30;;;5.32;;
39098;SDS011;24844;52.380;7.018;2023-03-23T00:51:42;11.45;;;5.40;;
39098;SDS011;24844;52.380;7.018;2023-03-23T00:54:09;12.07;;;5.18;;
39098;SDS011;24844;52.380;7.018;2023-03-23T00:56:35;8.00;;;5.18;;
39098;SDS011;24844;52.380;7.018;2023-03-23T00:59:01;10.20;;;5.32;;
39098;SDS011;24844;52.380;7.018;2023-03-23T01:01:27;9.85;;;5.38;;
39098;SDS011;24844;52.380;7.018;2023-03-23T01:03:53;9.20;;;4.88;;
39098;SDS011;24844;52.380;7.018;2023-03-23T01:06:25;8.38;;;5.07;;
39098;SDS011;24844;52.380;7.018;2023-03-23T01:08:55;7.63;;;5.05;;
39098;SDS011;24844;52.380;7.018;2023-03-23T01:11:22;9.55;;;5.43;;
39098;SDS011;24844;52.380;7.018;2023-03-23T01:13:49;9.32;;;4.90;;
39098;SDS011;24844;52.380;7.018;2023-03-23T01:16:14;11.07;;;5.07;;
39098;SDS011;24844;52.380;7.018;2023-03-23T01:18:40;7.10;;;4.65;;
39098;SDS011;24844;52.380;7.018;2023-03-23T01:21:09;9.40;;;5.13;;
39098;SDS011;24844;52.380;7.018;2023-03-23T01:23:37;9.85;;;4.72;;
39098;SDS011;24844;52.380;7.018;2023-03-23T01:26:08;8.00;;;4.60;;
39098;SDS011;24844;52.380;7.018;2023-03-23T01:28:36;9.73;;;4.90;;
39098;SDS011;24844;52.380;7.018;2023-03-23T01:31:06;8.65;;;4.15;;
39098;SDS011;24844;52.380;7.018;2023-03-23T01:33:33;7.05;;;4.35;;
39098;SDS011;24844;52.380;7.018;2023-03-23T01:36:03;6.43;;;4.32;;
39098;SDS011;24844;52.380;7.018;2023-03-23T01:38:30;5.55;;;4.03;;
39098;SDS011;24844;52.380;7.018;2023-03-23T01:40:56;6.18;;;4.22;;
39098;SDS011;24844;52.380;7.018;2023-03-23T01:43:22;7.15;;;4.78;;
39098;SDS011;24844;52.380;7.018;2023-03-23T01:45:47;7.65;;;4.55;;
39098;SDS011;24844;52.380;7.018;2023-03-23T01:48:55;8.95;;;4.53;;
39098;SDS011;24844;52.380;7.018;2023-03-23T01:51:04;9.35;;;4.50;;
39098;SDS011;24844;52.380;7.018;2023-03-23T01:53:37;9.05;;;4.70;;
39098;SDS011;24844;52.380;7.018;2023-03-23T01:56:07;7.00;;;4.30;;
39098;SDS011;24844;52.380;7.018;2023-03-23T01:58:36;6.65;;;4.63;;
39098;SDS011;24844;52.380;7.018;2023-03-23T02:01:08;8.23;;;4.63;;
39098;SDS011;24844;52.380;7.018;2023-03-23T02:03:36;10.75;;;4.68;;
39098;SDS011;24844;52.380;7.018;2023-03-23T02:06:04;7.10;;;4.50;;
39098;SDS011;24844;52.380;7.018;2023-03-23T02:08:30;8.80;;;4.85;;
39098;SDS011;24844;52.380;7.018;2023-03-23T02:10:57;11.68;;;4.65;;
39098;SDS011;24844;52.380;7.018;2023-03-23T02:13:24;7.38;;;4.40;;
39098;SDS011;24844;52.380;7.018;2023-03-23T02:21:40;4.28;;;3.45;;
39098;SDS011;24844;52.380;7.018;2023-03-23T02:29:44;9.77;;;4.68;;
39098;SDS011;24844;52.380;7.018;2023-03-23T02:32:32;7.97;;;3.67;;
39098;SDS011;24844;52.380;7.018;2023-03-23T02:35:22;5.40;;;3.65;;
39098;SDS011;24844;52.380;7.018;2023-03-23T02:37:57;5.30;;;3.70;;
39098;SDS011;24844;52.380;7.018;2023-03-23T02:40:30;6.93;;;4.13;;
39098;SDS011;24844;52.380;7.018;2023-03-23T02:43:03;7.93;;;4.40;;
39098;SDS011;24844;52.380;7.018;2023-03-23T02:45:33;5.53;;;3.95;;
39098;SDS011;24844;52.380;7.018;2023-03-23T02:48:01;7.87;;;4.83;;
39098;SDS011;24844;52.380;7.018;2023-03-23T02:50:29;5.37;;;3.70;;
39098;SDS011;24844;52.380;7.018;2023-03-23T02:52:56;5.60;;;4.00;;
39098;SDS011;24844;52.380;7.018;2023-03-23T02:55:23;8.88;;;4.00;;
39098;SDS011;24844;52.380;7.018;2023-03-23T02:57:51;5.40;;;3.92;;
39098;SDS011;24844;52.380;7.018;2023-03-23T03:00:18;4.88;;;3.83;;
39098;SDS011;24844;52.380;7.018;2023-03-23T03:02:51;5.97;;;3.53;;
39098;SDS011;24844;52.380;7.018;2023-03-23T03:08:11;7.22;;;3.60;;
39098;SDS011;24844;52.380;7.018;2023-03-23T03:11:03;5.07;;;3.55;;
39098;SDS011;24844;52.380;7.018;2023-03-23T03:16:33;7.10;;;4.03;;
39098;SDS011;24844;52.380;7.018;2023-03-23T03:19:11;5.88;;;3.95;;
39098;SDS011;24844;52.380;7.018;2023-03-23T03:21:44;5.72;;;3.78;;
39098;SDS011;24844;52.380;7.018;2023-03-23T03:24:12;7.07;;;4.18;;
39098;SDS011;24844;52.380;7.018;2023-03-23T03:29:10;8.77;;;4.55;;
39098;SDS011;24844;52.380;7.018;2023-03-23T03:31:37;7.20;;;4.80;;
39098;SDS011;24844;52.380;7.018;2023-03-23T03:34:10;6.10;;;4.68;;
39098;SDS011;24844;52.380;7.018;2023-03-23T03:36:36;9.90;;;5.20;;
39098;SDS011;24844;52.380;7.018;2023-03-23T03:39:06;7.03;;;4.70;;
39098;SDS011;24844;52.380;7.018;2023-03-23T03:41:34;6.30;;;4.53;;
39098;SDS011;24844;52.380;7.018;2023-03-23T03:44:01;7.03;;;4.32;;
39098;SDS011;24844;52.380;7.018;2023-03-23T03:46:27;6.68;;;4.32;;
39098;SDS011;24844;52.380;7.018;2023-03-23T03:48:55;8.38;;;4.47;;
39098;SDS011;24844;52.380;7.018;2023-03-23T03:51:24;8.15;;;4.80;;
39098;SDS011;24844;52.380;7.018;2023-03-23T03:53:51;9.02;;;4.90;;
39098;SDS011;24844;52.380;7.018;2023-03-23T03:56:17;6.70;;;4.65;;
39098;SDS011;24844;52.380;7.018;2023-03-23T03:58:43;8.90;;;4.68;;
39098;SDS011;24844;52.380;7.018;2023-03-23T04:01:09;7.38;;;4.93;;
39098;SDS011;24844;52.380;7.018;2023-03-23T04:03:35;7.07;;;4.32;;
39098;SDS011;24844;52.380;7.018;2023-03-23T04:06:01;7.97;;;4.70;;
39098;SDS011;24844;52.380;7.018;2023-03-23T04:08:28;7.55;;;4.63;;
39098;SDS011;24844;52.380;7.018;2023-03-23T04:10:54;6.95;;;4.68;;
39098;SDS011;24844;52.380;7.018;2023-03-23T04:13:20;7.38;;;4.57;;
39098;SDS011;24844;52.380;7.018;2023-03-23T04:15:45;7.75;;;4.13;;
39098;SDS011;24844;52.380;7.018;2023-03-23T04:18:12;8.68;;;4.38;;
39098;SDS011;24844;52.380;7.018;2023-03-23T04:20:40;6.97;;;4.10;;
39098;SDS011;24844;52.380;7.018;2023-03-23T04:23:07;5.82;;;4.25;;
39098;SDS011;24844;52.380;7.018;2023-03-23T04:25:32;7.28;;;4.35;;
39098;SDS011;24844;52.380;7.018;2023-03-23T04:27:58;6.30;;;4.43;;
39098;SDS011;24844;52.380;7.018;2023-03-23T04:30:26;6.18;;;4.15;;
39098;SDS011;24844;52.380;7.018;2023-03-23T04:32:54;5.15;;;4.18;;
39098;SDS011;24844;52.380;7.018;2023-03-23T04:35:20;7.30;;;4.65;;
39098;SDS011;24844;52.380;7.018;2023-03-23T04:37:49;8.18;;;4.15;;
39098;SDS011;24844;52.380;7.018;2023-03-23T04:40:16;6.82;;;4.30;;
39098;SDS011;24844;52.380;7.018;2023-03-23T04:42:42;8.60;;;4.90;;
39098;SDS011;24844;52.380;7.018;2023-03-23T04:45:15;5.15;;;4.20;;
39098;SDS011;24844;52.380;7.018;2023-03-23T04:47:46;8.82;;;4.75;;
39098;SDS011;24844;52.380;7.018;2023-03-23T04:50:22;6.82;;;4.68;;
39098;SDS011;24844;52.380;7.018;2023-03-23T04:52:51;6.78;;;4.88;;
39098;SDS011;24844;52.380;7.018;2023-03-23T04:55:18;6.40;;;4.60;;
39098;SDS011;24844;52.380;7.018;2023-03-23T04:57:44;8.18;;;4.88;;
39098;SDS011;24844;52.380;7.018;2023-03-23T05:00:11;7.30;;;5.15;;
39098;SDS011;24844;52.380;7.018;2023-03-23T05:02:39;5.88;;;4.68;;
39098;SDS011;24844;52.380;7.018;2023-03-23T05:05:08;7.55;;;4.72;;
39098;SDS011;24844;52.380;7.018;2023-03-23T05:07:36;6.55;;;5.22;;
39098;SDS011;24844;52.380;7.018;2023-03-23T05:10:05;6.70;;;4.88;;
39098;SDS011;24844;52.380;7.018;2023-03-23T05:12:33;7.93;;;5.27;;
39098;SDS011;24844;52.380;7.018;2023-03-23T05:14:58;6.38;;;4.35;;
39098;SDS011;24844;52.380;7.018;2023-03-23T05:17:25;7.70;;;4.97;;
39098;SDS011;24844;52.380;7.018;2023-03-23T05:19:51;8.02;;;5.13;;
39098;SDS011;24844;52.380;7.018;2023-03-23T05:22:17;5.13;;;4.28;;
39098;SDS011;24844;52.380;7.018;2023-03-23T05:24:42;6.65;;;4.30;;
39098;SDS011;24844;52.380;7.018;2023-03-23T05:27:08;5.57;;;3.75;;
39098;SDS011;24844;52.380;7.018;2023-03-23T05:29:35;6.43;;;4.57;;
39098;SDS011;24844;52.380;7.018;2023-03-23T05:32:03;6.82;;;4.20;;
39098;SDS011;24844;52.380;7.018;2023-03-23T05:34:30;7.35;;;4.18;;
39098;SDS011;24844;52.380;7.018;2023-03-23T05:36:58;9.82;;;4.47;;
39098;SDS011;24844;52.380;7.018;2023-03-23T05:39:24;9.95;;;4.32;;
39098;SDS011;24844;52.380;7.018;2023-03-23T05:41:50;8.50;;;4.35;;
39098;SDS011;24844;52.380;7.018;2023-03-23T05:44:16;11.38;;;5.13;;
39098;SDS011;24844;52.380;7.018;2023-03-23T05:46:42;6.40;;;4.75;;
39098;SDS011;24844;52.380;7.018;2023-03-23T05:49:08;7.32;;;4.35;;
39098;SDS011;24844;52.380;7.018;2023-03-23T05:51:34;8.00;;;4.43;;
39098;SDS011;24844;52.380;7.018;2023-03-23T05:54:00;7.43;;;4.25;;
39098;SDS011;24844;52.380;7.018;2023-03-23T05:56:26;6.40;;;4.10;;
39098;SDS011;24844;52.380;7.018;2023-03-23T05:58:53;6.47;;;4.30;;
39098;SDS011;24844;52.380;7.018;2023-03-23T06:01:19;8.23;;;4.22;;
39098;SDS011;24844;52.380;7.018;2023-03-23T06:03:45;5.55;;;3.88;;
39098;SDS011;24844;52.380;7.018;2023-03-23T06:06:11;5.45;;;3.85;;
39098;SDS011;24844;52.380;7.018;2023-03-23T06:08:37;7.43;;;3.95;;
39098;SDS011;24844;52.380;7.018;2023-03-23T06:11:03;4.82;;;3.85;;
39098;SDS011;24844;52.380;7.018;2023-03-23T06:13:29;8.40;;;3.83;;
39098;SDS011;24844;52.380;7.018;2023-03-23T06:15:56;8.18;;;4.00;;
39098;SDS011;24844;52.380;7.018;2023-03-23T06:18:22;8.23;;;3.63;;
39098;SDS011;24844;52.380;7.018;2023-03-23T06:20:49;11.35;;;3.83;;
39098;SDS011;24844;52.380;7.018;2023-03-23T06:23:15;10.13;;;3.88;;
39098;SDS011;24844;52.380;7.018;2023-03-23T06:25:42;6.45;;;3.47;;
39098;SDS011;24844;52.380;7.018;2023-03-23T06:28:08;10.73;;;3.97;;
39098;SDS011;24844;52.380;7.018;2023-03-23T06:30:34;9.77;;;3.53;;
39098;SDS011;24844;52.380;7.018;2023-03-23T06:33:01;7.85;;;3.05;;
39098;SDS011;24844;52.380;7.018;2023-03-23T06:35:30;11.00;;;3.30;;
39098;SDS011;24844;52.380;7.018;2023-03-23T06:37:56;9.52;;;3.33;;
39098;SDS011;24844;52.380;7.018;2023-03-23T06:40:26;13.50;;;3.45;;
39098;SDS011;24844;52.380;7.018;2023-03-23T06:42:53;7.93;;;3.80;;
39098;SDS011;24844;52.380;7.018;2023-03-23T06:45:19;7.60;;;2.92;;
39098;SDS011;24844;52.380;7.018;2023-03-23T06:47:45;9.98;;;3.58;;
39098;SDS011;24844;52.380;7.018;2023-03-23T06:50:13;6.68;;;2.83;;
39098;SDS011;24844;52.380;7.018;2023-03-23T06:52:40;11.27;;;4.03;;
39098;SDS011;24844;52.380;7.018;2023-03-23T06:55:10;7.15;;;2.90;;
39098;SDS011;24844;52.380;7.018;2023-03-23T06:57:36;7.97;;;2.67;;
39098;SDS011;24844;52.380;7.018;2023-03-23T07:00:02;7.90;;;2.90;;
39098;SDS011;24844;52.380;7.018;2023-03-23T07:02:30;10.93;;;3.15;;
39098;SDS011;24844;52.380;7.018;2023-03-23T07:04:55;7.43;;;2.92;;
39098;SDS011;24844;52.380;7.018;2023-03-23T07:07:22;5.90;;;2.50;;
39098;SDS011;24844;52.380;7.018;2023-03-23T07:09:48;11.88;;;2.88;;
39098;SDS011;24844;52.380;7.018;2023-03-23T07:12:13;8.30;;;2.78;;
39098;SDS011;24844;52.380;7.018;2023-03-23T07:14:39;8.30;;;2.80;;
39098;SDS011;24844;52.380;7.018;2023-03-23T07:17:04;7.53;;;2.80;;
39098;SDS011;24844;52.380;7.018;2023-03-23T07:19:32;7.75;;;2.78;;
39098;SDS011;24844;52.380;7.018;2023-03-23T07:21:58;7.05;;;2.60;;
39098;SDS011;24844;52.380;7.018;2023-03-23T07:24:23;6.70;;;2.85;;
39098;SDS011;24844;52.380;7.018;2023-03-23T07:26:49;7.72;;;2.92;;
39098;SDS011;24844;52.380;7.018;2023-03-23T07:29:16;7.22;;;3.05;;
39098;SDS011;24844;52.380;7.018;2023-03-23T07:31:41;8.13;;;2.80;;
39098;SDS011;24844;52.380;7.018;2023-03-23T07:34:07;7.72;;;3.03;;
39098;SDS011;24844;52.380;7.018;2023-03-23T07:36:33;6.82;;;2.97;;
39098;SDS011;24844;52.380;7.018;2023-03-23T07:39:02;7.93;;;3.40;;
39098;SDS011;24844;52.380;7.018;2023-03-23T07:41:30;8.02;;;3.17;;
39098;SDS011;24844;52.380;7.018;2023-03-23T07:43:56;7.65;;;3.03;;
39098;SDS011;24844;52.380;7.018;2023-03-23T07:46:22;8.30;;;3.20;;
39098;SDS011;24844;52.380;7.018;2023-03-23T07:48:47;11.88;;;3.35;;
39098;SDS011;24844;52.380;7.018;2023-03-23T07:51:14;11.60;;;3.53;;
39098;SDS011;24844;52.380;7.018;2023-03-23T07:53:41;8.80;;;3.00;;
39098;SDS011;24844;52.380;7.018;2023-03-23T07:56:09;12.68;;;3.42;;
39098;SDS011;24844;52.380;7.018;2023-03-23T07:58:40;6.13;;;2.90;;
39098;SDS011;24844;52.380;7.018;2023-03-23T08:01:06;8.30;;;2.28;;
39098;SDS011;24844;52.380;7.018;2023-03-23T08:03:33;5.57;;;2.00;;
39098;SDS011;24844;52.380;7.018;2023-03-23T08:05:59;5.18;;;2.30;;
39098;SDS011;24844;52.380;7.018;2023-03-23T08:08:25;3.67;;;1.48;;
39098;SDS011;24844;52.380;7.018;2023-03-23T08:10:50;5.88;;;1.75;;
39098;SDS011;24844;52.380;7.018;2023-03-23T08:13:16;4.82;;;1.30;;
39098;SDS011;24844;52.380;7.018;2023-03-23T08:15:43;5.00;;;1.85;;
39098;SDS011;24844;52.380;7.018;2023-03-23T08:18:09;9.43;;;1.70;;
39098;SDS011;24844;52.380;7.018;2023-03-23T08:20:35;5.75;;;2.28;;
39098;SDS011;24844;52.380;7.018;2023-03-23T08:23:01;5.53;;;1.60;;
39098;SDS011;24844;52.380;7.018;2023-03-23T08:25:28;7.50;;;2.00;;
39098;SDS011;24844;52.380;7.018;2023-03-23T08:27:56;3.58;;;1.90;;
39098;SDS011;24844;52.380;7.018;2023-03-23T08:30:22;7.90;;;2.22;;
39098;SDS011;24844;52.380;7.018;2023-03-23T08:32:49;4.95;;;2.00;;
39098;SDS011;24844;52.380;7.018;2023-03-23T08:35:16;6.72;;;2.00;;
39098;SDS011;24844;52.380;7.018;2023-03-23T08:37:42;6.90;;;2.10;;
39098;SDS011;24844;52.380;7.018;2023-03-23T08:40:09;6.13;;;2.63;;
39098;SDS011;24844;52.380;7.018;2023-03-23T08:42:40;6.72;;;2.60;;
39098;SDS011;24844;52.380;7.018;2023-03-23T08:45:08;6.75;;;2.55;;
39098;SDS011;24844;52.380;7.018;2023-03-23T08:47:36;10.48;;;2.92;;
39098;SDS011;24844;52.380;7.018;2023-03-23T08:50:04;8.80;;;2.80;;
39098;SDS011;24844;52.380;7.018;2023-03-23T08:52:30;9.13;;;3.40;;
39098;SDS011;24844;52.380;7.018;2023-03-23T08:54:56;9.68;;;3.33;;
39098;SDS011;24844;52.380;7.018;2023-03-23T08:57:23;12.30;;;3.75;;
39098;SDS011;24844;52.380;7.018;2023-03-23T08:59:51;7.85;;;2.90;;
39098;SDS011;24844;52.380;7.018;2023-03-23T09:02:19;9.30;;;3.17;;
39098;SDS011;24844;52.380;7.018;2023-03-23T09:04:45;9.55;;;3.03;;
39098;SDS011;24844;52.380;7.018;2023-03-23T09:07:11;5.50;;;2.30;;
39098;SDS011;24844;52.380;7.018;2023-03-23T09:09:39;6.93;;;2.50;;
39098;SDS011;24844;52.380;7.018;2023-03-23T09:12:06;8.98;;;2.90;;
39098;SDS011;24844;52.380;7.018;2023-03-23T09:14:33;5.57;;;2.40;;
39098;SDS011;24844;52.380;7.018;2023-03-23T09:17:00;8.32;;;2.30;;
39098;SDS011;24844;52.380;7.018;2023-03-23T09:19:26;9.82;;;2.15;;
39098;SDS011;24844;52.380;7.018;2023-03-23T09:21:52;5.18;;;2.15;;
39098;SDS011;24844;52.380;7.018;2023-03-23T09:24:18;6.40;;;2.20;;
39098;SDS011;24844;52.380;7.018;2023-03-23T09:26:44;6.40;;;1.88;;
39098;SDS011;24844;52.380;7.018;2023-03-23T09:29:10;8.90;;;2.15;;
39098;SDS011;24844;52.380;7.018;2023-03-23T09:31:37;6.28;;;1.50;;
39098;SDS011;24844;52.380;7.018;2023-03-23T09:34:05;4.80;;;1.45;;
39098;SDS011;24844;52.380;7.018;2023-03-23T09:36:34;7.15;;;1.42;;
39098;SDS011;24844;52.380;7.018;2023-03-23T09:39:01;6.22;;;2.20;;
39098;SDS011;24844;52.380;7.018;2023-03-23T09:41:40;7.82;;;2.00;;
39098;SDS011;24844;52.380;7.018;2023-03-23T09:47:11;5.82;;;2.10;;
39098;SDS011;24844;52.380;7.018;2023-03-23T09:49:47;6.65;;;1.85;;
39098;SDS011;24844;52.380;7.018;2023-03-23T09:52:19;4.55;;;1.50;;
39098;SDS011;24844;52.380;7.018;2023-03-23T09:54:46;5.63;;;2.22;;
39098;SDS011;24844;52.380;7.018;2023-03-23T09:57:28;5.63;;;1.75;;
39098;SDS011;24844;52.380;7.018;2023-03-23T10:02:34;7.10;;;1.88;;
39098;SDS011;24844;52.380;7.018;2023-03-23T10:07:57;7.35;;;1.92;;
39098;SDS011;24844;52.380;7.018;2023-03-23T10:10:26;4.03;;;1.58;;
39098;SDS011;24844;52.380;7.018;2023-03-23T10:13:15;6.47;;;1.92;;
39098;SDS011;24844;52.380;7.018;2023-03-23T10:15:48;4.68;;;1.92;;
39098;SDS011;24844;52.380;7.018;2023-03-23T10:21:02;7.53;;;2.03;;
39098;SDS011;24844;52.380;7.018;2023-03-23T10:26:14;8.00;;;2.30;;
39098;SDS011;24844;52.380;7.018;2023-03-23T10:28:44;5.78;;;2.22;;
39098;SDS011;24844;52.380;7.018;2023-03-23T10:31:22;3.70;;;1.60;;
39098;SDS011;24844;52.380;7.018;2023-03-23T10:33:54;5.47;;;1.98;;
39098;SDS011;24844;52.380;7.018;2023-03-23T10:36:24;5.95;;;1.90;;
39098;SDS011;24844;52.380;7.018;2023-03-23T10:39:02;6.88;;;2.25;;
39098;SDS011;24844;52.380;7.018;2023-03-23T10:41:36;8.45;;;1.92;;
39098;SDS011;24844;52.380;7.018;2023-03-23T10:44:07;7.63;;;2.42;;
39098;SDS011;24844;52.380;7.018;2023-03-23T10:47:00;6.00;;;2.00;;
39098;SDS011;24844;52.380;7.018;2023-03-23T10:49:36;7.82;;;1.90;;
39098;SDS011;24844;52.380;7.018;2023-03-23T10:52:24;6.63;;;2.05;;
39098;SDS011;24844;52.380;7.018;2023-03-23T10:55:08;7.43;;;2.00;;
39098;SDS011;24844;52.380;7.018;2023-03-23T10:57:37;7.05;;;2.03;;
39098;SDS011;24844;52.380;7.018;2023-03-23T11:02:46;7.88;;;1.80;;
39098;SDS011;24844;52.380;7.018;2023-03-23T11:05:24;6.63;;;1.88;;
39098;SDS011;24844;52.380;7.018;2023-03-23T11:07:57;8.90;;;1.80;;
39098;SDS011;24844;52.380;7.018;2023-03-23T11:10:26;8.68;;;1.80;;
39098;SDS011;24844;52.380;7.018;2023-03-23T11:12:57;6.35;;;1.70;;
39098;SDS011;24844;52.380;7.018;2023-03-23T11:15:26;7.65;;;1.75;;
39098;SDS011;24844;52.380;7.018;2023-03-23T11:18:11;5.82;;;2.03;;
39098;SDS011;24844;52.380;7.018;2023-03-23T11:20:44;7.97;;;1.70;;
39098;SDS011;24844;52.380;7.018;2023-03-23T11:23:21;12.38;;;1.88;;
39098;SDS011;24844;52.380;7.018;2023-03-23T11:26:13;7.65;;;1.90;;
39098;SDS011;24844;52.380;7.018;2023-03-23T11:28:47;7.03;;;1.50;;
39098;SDS011;24844;52.380;7.018;2023-03-23T11:31:21;10.85;;;2.50;;
39098;SDS011;24844;52.380;7.018;2023-03-23T11:36:29;9.02;;;2.33;;
39098;SDS011;24844;52.380;7.018;2023-03-23T11:38:58;7.25;;;1.95;;
39098;SDS011;24844;52.380;7.018;2023-03-23T11:41:24;11.48;;;2.20;;
39098;SDS011;24844;52.380;7.018;2023-03-23T11:43:56;11.43;;;1.95;;
39098;SDS011;24844;52.380;7.018;2023-03-23T11:47:08;8.10;;;2.05;;
39098;SDS011;24844;52.380;7.018;2023-03-23T11:49:22;10.35;;;2.53;;
39098;SDS011;24844;52.380;7.018;2023-03-23T11:52:05;9.60;;;2.05;;
39098;SDS011;24844;52.380;7.018;2023-03-23T11:54:56;7.45;;;2.00;;
39098;SDS011;24844;52.380;7.018;2023-03-23T11:57:27;9.88;;;2.08;;
39098;SDS011;24844;52.380;7.018;2023-03-23T11:59:55;10.25;;;2.10;;
39098;SDS011;24844;52.380;7.018;2023-03-23T12:02:39;7.07;;;1.80;;
39098;SDS011;24844;52.380;7.018;2023-03-23T12:10:34;7.10;;;1.80;;
39098;SDS011;24844;52.380;7.018;2023-03-23T12:14:09;6.70;;;1.85;;
39098;SDS011;24844;52.380;7.018;2023-03-23T12:16:32;8.23;;;2.13;;
39098;SDS011;24844;52.380;7.018;2023-03-23T12:19:12;8.07;;;2.08;;
39098;SDS011;24844;52.380;7.018;2023-03-23T12:25:13;7.90;;;1.80;;
39098;SDS011;24844;52.380;7.018;2023-03-23T12:30:49;10.40;;;2.25;;
39098;SDS011;24844;52.380;7.018;2023-03-23T12:37:10;9.52;;;1.95;;
39098;SDS011;24844;52.380;7.018;2023-03-23T12:48:28;11.27;;;2.17;;
39098;SDS011;24844;52.380;7.018;2023-03-23T12:53:48;8.80;;;1.80;;
39098;SDS011;24844;52.380;7.018;2023-03-23T12:56:30;8.93;;;2.17;;
39098;SDS011;24844;52.380;7.018;2023-03-23T12:59:10;9.00;;;2.28;;
39098;SDS011;24844;52.380;7.018;2023-03-23T13:04:45;5.60;;;1.60;;
39098;SDS011;24844;52.380;7.018;2023-03-23T13:07:20;10.32;;;2.20;;
39098;SDS011;24844;52.380;7.018;2023-03-23T13:12:29;10.68;;;2.63;;
39098;SDS011;24844;52.380;7.018;2023-03-23T13:15:06;8.43;;;2.17;;
39098;SDS011;24844;52.380;7.018;2023-03-23T13:17:36;7.50;;;2.22;;
39098;SDS011;24844;52.380;7.018;2023-03-23T13:23:11;8.93;;;2.30;;
39098;SDS011;24844;52.380;7.018;2023-03-23T13:28:34;8.07;;;2.25;;
39098;SDS011;24844;52.380;7.018;2023-03-23T13:31:12;11.10;;;2.20;;
39098;SDS011;24844;52.380;7.018;2023-03-23T13:33:43;12.10;;;2.67;;
39098;SDS011;24844;52.380;7.018;2023-03-23T13:36:33;11.60;;;2.65;;
39098;SDS011;24844;52.380;7.018;2023-03-23T13:39:05;7.55;;;1.90;;
39098;SDS011;24844;52.380;7.018;2023-03-23T13:41:49;6.65;;;1.65;;
39098;SDS011;24844;52.380;7.018;2023-03-23T13:50:30;9.68;;;1.95;;
39098;SDS011;24844;52.380;7.018;2023-03-23T13:52:52;5.10;;;1.83;;
39098;SDS011;24844;52.380;7.018;2023-03-23T13:58:24;8.13;;;1.80;;
39098;SDS011;24844;52.380;7.018;2023-03-23T14:01:11;7.05;;;1.95;;
39098;SDS011;24844;52.380;7.018;2023-03-23T14:03:41;6.05;;;1.85;;
39098;SDS011;24844;52.380;7.018;2023-03-23T14:06:12;10.30;;;1.95;;
39098;SDS011;24844;52.380;7.018;2023-03-23T14:08:41;6.43;;;1.77;;
39098;SDS011;24844;52.380;7.018;2023-03-23T14:11:30;7.00;;;1.73;;
39098;SDS011;24844;52.380;7.018;2023-03-23T14:14:06;7.07;;;1.10;;
39098;SDS011;24844;52.380;7.018;2023-03-23T14:16:39;7.03;;;1.58;;
39098;SDS011;24844;52.380;7.018;2023-03-23T14:22:05;5.38;;;1.35;;
39098;SDS011;24844;52.380;7.018;2023-03-23T14:24:43;7.00;;;1.65;;
39098;SDS011;24844;52.380;7.018;2023-03-23T14:27:14;7.80;;;1.00;;
39098;SDS011;24844;52.380;7.018;2023-03-23T14:29:57;3.88;;;1.50;;
39098;SDS011;24844;52.380;7.018;2023-03-23T14:32:24;5.40;;;1.13;;
39098;SDS011;24844;52.380;7.018;2023-03-23T14:34:53;4.05;;;1.27;;
39098;SDS011;24844;52.380;7.018;2023-03-23T14:37:20;4.82;;;1.33;;
39098;SDS011;24844;52.380;7.018;2023-03-23T14:39:51;4.80;;;0.98;;
39098;SDS011;24844;52.380;7.018;2023-03-23T14:42:20;2.97;;;1.00;;
39098;SDS011;24844;52.380;7.018;2023-03-23T14:44:50;6.25;;;1.23;;
39098;SDS011;24844;52.380;7.018;2023-03-23T14:47:20;3.13;;;1.20;;
39098;SDS011;24844;52.380;7.018;2023-03-23T14:49:52;4.07;;;1.30;;
39098;SDS011;24844;52.380;7.018;2023-03-23T14:52:21;3.85;;;1.48;;
39098;SDS011;24844;52.380;7.018;2023-03-23T14:54:48;3.75;;;1.45;;
39098;SDS011;24844;52.380;7.018;2023-03-23T14:59:53;4.05;;;1.23;;
39098;SDS011;24844;52.380;7.018;2023-03-23T15:02:32;6.40;;;1.30;;
39098;SDS011;24844;52.380;7.018;2023-03-23T15:05:10;3.88;;;0.93;;
39098;SDS011;24844;52.380;7.018;2023-03-23T15:07:40;3.60;;;1.40;;
39098;SDS011;24844;52.380;7.018;2023-03-23T15:10:10;3.47;;;1.30;;
39098;SDS011;24844;52.380;7.018;2023-03-23T15:12:43;3.30;;;1.25;;
39098;SDS011;24844;52.380;7.018;2023-03-23T15:15:18;6.25;;;1.35;;
39098;SDS011;24844;52.380;7.018;2023-03-23T15:17:51;6.40;;;1.60;;
39098;SDS011;24844;52.380;7.018;2023-03-23T15:20:19;3.95;;;1.48;;
39098;SDS011;24844;52.380;7.018;2023-03-23T15:22:46;4.32;;;1.77;;
39098;SDS011;24844;52.380;7.018;2023-03-23T15:25:20;7.22;;;1.90;;
39098;SDS011;24844;52.380;7.018;2023-03-23T15:27:49;3.60;;;1.50;;
39098;SDS011;24844;52.380;7.018;2023-03-23T15:32:51;6.30;;;1.83;;
39098;SDS011;24844;52.380;7.018;2023-03-23T15:35:25;5.07;;;1.80;;
39098;SDS011;24844;52.380;7.018;2023-03-23T15:37:52;6.90;;;1.80;;
39098;SDS011;24844;52.380;7.018;2023-03-23T15:40:26;4.72;;;1.67;;
39098;SDS011;24844;52.380;7.018;2023-03-23T15:45:51;8.25;;;2.47;;
39098;SDS011;24844;52.380;7.018;2023-03-23T15:48:18;6.22;;;2.17;;
39098;SDS011;24844;52.380;7.018;2023-03-23T15:50:45;7.50;;;2.40;;
39098;SDS011;24844;52.380;7.018;2023-03-23T15:55:50;6.65;;;2.13;;
39098;SDS011;24844;52.380;7.018;2023-03-23T15:58:16;7.20;;;2.20;;
39098;SDS011;24844;52.380;7.018;2023-03-23T16:00:42;10.00;;;2.75;;
39098;SDS011;24844;52.380;7.018;2023-03-23T16:03:10;8.10;;;2.28;;
39098;SDS011;24844;52.380;7.018;2023-03-23T16:05:38;6.50;;;2.28;;
39098;SDS011;24844;52.380;7.018;2023-03-23T16:08:04;5.38;;;2.08;;
39098;SDS011;24844;52.380;7.018;2023-03-23T16:10:30;5.28;;;2.17;;
39098;SDS011;24844;52.380;7.018;2023-03-23T16:12:55;7.60;;;2.15;;
39098;SDS011;24844;52.380;7.018;2023-03-23T16:15:21;5.90;;;2.20;;
39098;SDS011;24844;52.380;7.018;2023-03-23T16:17:46;8.57;;;2.50;;
39098;SDS011;24844;52.380;7.018;2023-03-23T16:20:13;6.47;;;2.42;;
39098;SDS011;24844;52.380;7.018;2023-03-23T16:22:44;7.03;;;2.28;;
39098;SDS011;24844;52.380;7.018;2023-03-23T16:25:10;6.85;;;2.17;;
39098;SDS011;24844;52.380;7.018;2023-03-23T16:27:37;8.30;;;2.42;;
39098;SDS011;24844;52.380;7.018;2023-03-23T16:30:14;9.63;;;3.00;;
39098;SDS011;24844;52.380;7.018;2023-03-23T16:32:52;8.23;;;2.47;;
39098;SDS011;24844;52.380;7.018;2023-03-23T16:35:18;5.43;;;2.10;;
39098;SDS011;24844;52.380;7.018;2023-03-23T16:37:51;7.57;;;2.20;;
39098;SDS011;24844;52.380;7.018;2023-03-23T16:40:19;6.57;;;2.40;;
39098;SDS011;24844;52.380;7.018;2023-03-23T16:42:45;9.55;;;2.60;;
39098;SDS011;24844;52.380;7.018;2023-03-23T16:45:12;4.57;;;1.92;;